Time;durP1;ratioP1;P1;durP2;ratioP2;P2;SDS_P1;SDS_P2;PMS_P1;PMS_P2;Temp;Humidity;BMP_temperature;BMP_pressure;BME280_temperature;BME280_humidity;BME280_pressure;Samples;Min_cycle;Max_cycle;Signal;HPM_P1;HPM_P2
2021/07/31 00:00:03;;;;;;;;;2.00;2.00;;;;;19.46;51.47;100436.41;5014089;28;46019;-77
2021/07/31 00:05:50;;;;;;;;;2.00;2.00;;;;;19.39;51.98;100433.56;5017855;28;45719;-76
2021/07/31 00:08:15;;;;;;;;;2.00;2.00;;;;;19.35;52.07;100445.53;5017282;28;47577;-77
2021/07/31 00:10:40;;;;;;;;;2.25;1.50;;;;;19.31;51.88;100428.28;5017504;28;47255;-78
2021/07/31 00:13:06;;;;;;;;;2.00;2.00;;;;;19.26;52.16;100442.06;5018973;28;45642;-80
2021/07/31 00:15:31;;;;;;;;;2.50;1.50;;;;;19.19;52.26;100441.09;5001757;28;45933;-79
2021/07/31 00:17:57;;;;;;;;;1.50;1.50;;;;;19.18;52.23;100446.56;5020026;28;45577;-80
2021/07/31 00:20:23;;;;;;;;;2.00;1.50;;;;;19.11;52.51;100435.75;5019179;28;45985;-80
2021/07/31 00:22:48;;;;;;;;;2.50;1.75;;;;;19.10;52.68;100449.22;5018808;28;45524;-79
2021/07/31 00:25:13;;;;;;;;;2.50;2.00;;;;;19.01;52.54;100439.59;5018378;28;45534;-80
2021/07/31 00:27:39;;;;;;;;;3.00;2.00;;;;;19.01;52.57;100440.44;5018002;28;45600;-80
2021/07/31 00:30:05;;;;;;;;;1.75;1.75;;;;;18.98;52.86;100434.63;5017767;28;45956;-81
2021/07/31 00:35:52;;;;;;;;;1.50;1.50;;;;;18.91;53.18;100439.78;5006669;28;45773;-81
2021/07/31 00:38:17;;;;;;;;;2.75;2.00;;;;;18.91;52.46;100444.25;5017603;28;45625;-80
2021/07/31 00:40:43;;;;;;;;;2.00;2.00;;;;;18.89;53.35;100452.41;5017323;28;47116;-79
2021/07/31 00:43:09;;;;;;;;;2.00;2.00;;;;;18.86;53.48;100444.75;5017252;28;46007;-80
2021/07/31 00:45:35;;;;;;;;;3.25;2.25;;;;;18.79;53.21;100436.63;5017939;28;45469;-80
2021/07/31 00:48:01;;;;;;;;;2.50;2.25;;;;;18.81;53.00;100439.94;5017339;28;46696;-81
2021/07/31 00:50:28;;;;;;;;;1.00;1.00;;;;;18.78;53.29;100434.16;5017706;28;46080;-80
2021/07/31 00:52:54;;;;;;;;;3.00;1.75;;;;;18.70;53.15;100429.66;5017195;28;45558;-80
2021/07/31 00:55:22;;;;;;;;;2.50;2.25;;;;;18.72;53.36;100443.59;5017040;28;45591;-80
2021/07/31 00:57:49;;;;;;;;;2.00;2.00;;;;;18.73;53.46;100439.13;5017009;28;46769;-80
2021/07/31 01:00:16;;;;;;;;;1.50;1.50;;;;;18.72;53.69;100435.66;5017267;28;46068;-81
2021/07/31 01:06:04;;;;;;;;;3.75;2.50;;;;;18.67;53.63;100443.28;5017041;28;45485;-80
2021/07/31 01:08:29;;;;;;;;;2.50;2.00;;;;;18.66;54.27;100444.28;5016461;28;46985;-81
2021/07/31 01:10:55;;;;;;;;;3.00;2.75;;;;;18.65;53.87;100441.78;5016856;28;46053;-81
2021/07/31 01:13:21;;;;;;;;;2.00;2.00;;;;;18.63;53.89;100441.09;5016835;28;45620;-74
2021/07/31 01:16:09;;;;;;;;;2.00;2.00;;;;;18.64;54.22;100440.09;5002316;28;45729;-78
2021/07/31 01:18:35;;;;;;;;;3.50;2.75;;;;;18.64;54.31;100440.09;5006224;28;47573;-75
2021/07/31 01:21:00;;;;;;;;;3.00;2.00;;;;;18.50;54.48;100422.16;5024784;28;46047;-78
2021/07/31 01:23:26;;;;;;;;;2.50;2.50;;;;;18.61;54.82;100441.28;5024519;28;45960;-76
2021/07/31 01:25:51;;;;;;;;;2.25;2.00;;;;;18.55;54.56;100447.25;5020364;28;45510;-75
2021/07/31 01:28:17;;;;;;;;;2.75;2.75;;;;;18.54;54.97;100447.38;5016570;28;46720;-79
2021/07/31 01:30:43;;;;;;;;;2.50;1.50;;;;;18.41;55.09;100423.97;5017231;28;46246;-78
2021/07/31 01:36:29;;;;;;;;;1.75;1.75;;;;;18.39;55.52;100441.88;5010063;28;45647;-77
2021/07/31 01:38:59;;;;;;;;;3.25;3.00;;;;;18.36;55.27;100452.78;5017145;28;46630;-77
2021/07/31 01:41:25;;;;;;;;;1.50;1.50;;;;;18.36;55.70;100445.69;5016267;28;46409;-77
2021/07/31 01:43:51;;;;;;;;;4.25;2.50;;;;;18.33;55.51;100445.19;5016324;28;45491;-78
2021/07/31 01:46:17;;;;;;;;;3.00;2.25;;;;;18.33;55.39;100445.19;5016905;28;45498;-77
2021/07/31 01:48:42;;;;;;;;;2.25;2.25;;;;;18.26;55.08;100439.69;5016008;28;45640;-76
2021/07/31 01:51:08;;;;;;;;;2.25;2.00;;;;;18.29;55.11;100447.34;5016111;28;46172;-79
2021/07/31 01:53:34;;;;;;;;;2.75;2.00;;;;;18.30;55.74;100446.31;5016171;28;45685;-76
2021/07/31 01:55:59;;;;;;;;;2.25;2.25;;;;;18.13;56.30;100427.91;5017175;28;45573;-76
2021/07/31 01:58:25;;;;;;;;;2.00;2.00;;;;;18.23;55.93;100447.97;5017173;28;46559;-76
2021/07/31 02:00:54;;;;;;;;;6.25;2.50;;;;;18.21;56.23;100449.97;5016271;28;47109;-77
2021/07/31 02:06:41;;;;;;;;;4.25;2.00;;;;;18.16;56.55;100441.66;5017013;28;45714;-76
2021/07/31 02:09:07;;;;;;;;;3.00;3.00;;;;;18.15;56.09;100455.06;5015883;28;46423;-79
2021/07/31 02:11:37;;;;;;;;;2.00;2.00;;;;;18.09;56.39;100443.28;5016902;28;46382;-78
2021/07/31 02:14:02;;;;;;;;;2.75;2.00;;;;;18.09;56.18;100445.94;5016389;28;45683;-78
2021/07/31 02:16:28;;;;;;;;;2.75;1.25;;;;;18.07;56.43;100439.16;5016704;28;45565;-78
2021/07/31 02:18:53;;;;;;;;;3.00;2.50;;;;;18.06;57.19;100432.19;5015858;28;45927;-77
2021/07/31 02:21:19;;;;;;;;;3.25;2.50;;;;;18.01;56.61;100438.81;5015695;28;46270;-76
2021/07/31 02:23:45;;;;;;;;;1.25;0.00;;;;;17.99;57.18;100440.78;5015794;28;45595;-76
2021/07/31 02:26:10;;;;;;;;;2.75;2.00;;;;;17.96;57.58;100437.63;5015714;28;45641;-77
2021/07/31 02:28:36;;;;;;;;;3.50;2.50;;;;;17.79;57.36;100415.53;5015414;28;47048;-76
2021/07/31 02:31:01;;;;;;;;;2.75;2.00;;;;;17.77;57.16;100411.38;5015358;28;45840;-75
2021/07/31 02:36:48;;;;;;;;;4.00;3.00;;;;;17.87;57.68;100430.63;5012364;28;45660;-77
2021/07/31 02:39:13;;;;;;;;;2.00;2.00;;;;;17.86;57.50;100427.16;5015217;28;45609;-75
2021/07/31 02:41:38;;;;;;;;;3.75;3.00;;;;;17.81;57.37;100426.81;5015230;28;45695;-78
2021/07/31 02:44:04;;;;;;;;;2.75;2.75;;;;;17.83;57.81;100432.78;5015437;28;45586;-76
2021/07/31 02:46:29;;;;;;;;;2.00;2.00;;;;;17.83;57.41;100421.34;5015157;28;45601;-76
2021/07/31 02:52:16;;;;;;;;;2.75;2.00;;;;;17.81;57.39;100426.81;5014992;28;45865;-76
2021/07/31 02:54:43;;;;;;;;;3.00;3.00;;;;;17.79;57.75;100417.34;5015036;28;45949;-77
2021/07/31 02:57:08;;;;;;;;;2.00;2.00;;;;;17.76;57.80;100415.03;4997262;28;45552;-76
2021/07/31 02:59:34;;;;;;;;;3.00;1.75;;;;;17.79;57.68;100422.66;5015405;28;45564;-75
2021/07/31 03:01:59;;;;;;;;;3.75;2.25;;;;;17.76;57.89;100417.69;5014952;28;46943;-80
2021/07/31 03:04:24;;;;;;;;;3.00;3.00;;;;;17.75;57.54;100422.16;5015337;28;45705;-80
2021/07/31 03:06:50;;;;;;;;;2.00;2.00;;;;;17.70;58.00;100413.03;5015365;28;45684;-81
2021/07/31 03:09:15;;;;;;;;;4.00;2.25;;;;;17.72;58.04;100416.31;5015215;28;45573;-81
2021/07/31 03:11:40;;;;;;;;;2.00;1.00;;;;;17.72;57.93;100421.63;5015168;28;45749;-79
2021/07/31 03:14:06;;;;;;;;;3.00;3.00;;;;;17.70;57.94;100428.91;5016246;28;45673;-79
2021/07/31 03:16:31;;;;;;;;;3.75;2.00;;;;;17.68;57.95;100422.94;5018478;28;45629;-81
2021/07/31 03:22:18;;;;;;;;;3.25;3.25;;;;;17.55;58.49;100408.28;5021278;28;45774;-80
2021/07/31 03:24:44;;;;;;;;;2.25;2.25;;;;;17.53;58.56;100412.09;5020276;28;45521;-77
2021/07/31 03:27:09;;;;;;;;;2.00;1.75;;;;;17.54;58.70;100414.56;5020469;28;45646;-79
2021/07/31 03:29:35;;;;;;;;;3.00;2.25;;;;;17.51;58.52;100424.63;5018696;28;47533;-80
2021/07/31 03:32:00;;;;;;;;;3.75;2.75;;;;;17.47;58.89;100410.91;5015480;28;46937;-80
2021/07/31 03:34:26;;;;;;;;;3.50;3.00;;;;;17.46;58.96;100424.28;5015949;28;45695;-80
2021/07/31 03:36:52;;;;;;;;;4.50;3.00;;;;;17.41;58.64;100414.16;5015582;28;45583;-81
2021/07/31 03:39:25;;;;;;;;;2.00;2.00;;;;;17.40;59.14;100414.31;5014223;28;45603;-80
2021/07/31 03:41:53;;;;;;;;;3.00;3.00;;;;;17.41;59.48;100418.63;5017682;28;45772;-81
2021/07/31 03:44:19;;;;;;;;;2.00;1.50;;;;;17.38;59.48;100425.06;5017799;28;45457;-79
2021/07/31 03:46:46;;;;;;;;;2.00;2.00;;;;;17.36;59.25;100416.47;5018741;28;45555;-79
2021/07/31 03:52:33;;;;;;;;;2.00;2.00;;;;;17.34;59.15;100418.44;5015603;28;45937;-79
2021/07/31 03:54:58;;;;;;;;;3.00;3.00;;;;;17.37;58.96;100433.19;5014795;28;45582;-80
2021/07/31 03:57:23;;;;;;;;;2.00;2.00;;;;;17.36;59.29;100432.34;5015138;28;45512;-79
2021/07/31 03:59:49;;;;;;;;;3.00;2.00;;;;;17.35;59.53;100427.22;5014327;28;46425;-79
2021/07/31 04:08:20;;;;;;;;;2.00;2.00;;;;;17.33;59.15;100424.72;5014041;28;45639;-80
2021/07/31 04:10:45;;;;;;;;;3.00;2.50;;;;;17.40;59.48;100438.16;5014517;28;45673;-79
2021/07/31 04:13:10;;;;;;;;;2.00;2.00;;;;;17.39;59.56;100433.84;5014800;28;46023;-77
2021/07/31 04:15:36;;;;;;;;;3.00;3.00;;;;;17.39;59.34;100428.53;5014977;28;45741;-79
2021/07/31 04:18:01;;;;;;;;;4.75;4.75;;;;;17.42;59.22;100430.91;5014840;28;45665;-80
2021/07/31 04:20:27;;;;;;;;;2.50;2.25;;;;;17.44;59.35;100435.03;4996749;28;47850;-81
2021/07/31 04:22:52;;;;;;;;;3.25;3.00;;;;;17.43;59.52;100432.56;5014776;28;46082;-80
2021/07/31 04:25:17;;;;;;;;;2.75;2.00;;;;;17.35;59.65;100421.91;5014108;28;45647;-78
2021/07/31 04:27:43;;;;;;;;;3.00;3.00;;;;;17.40;59.50;100433.69;5014077;28;45445;-81
2021/07/31 04:30:08;;;;;;;;;2.50;2.50;;;;;17.35;59.94;100433.34;5013943;28;46434;-81
2021/07/31 04:32:34;;;;;;;;;4.00;3.00;;;;;17.34;59.82;100434.31;5013761;28;45599;-80
2021/07/31 04:35:02;;;;;;;;;3.50;3.50;;;;;17.32;59.86;100446.06;5013965;28;45571;-81
2021/07/31 04:37:27;;;;;;;;;3.50;2.50;;;;;17.24;60.18;100438.06;5013607;28;45863;-79
2021/07/31 04:39:56;;;;;;;;;4.00;4.00;;;;;17.16;60.29;100428.25;5014517;28;46424;-81
2021/07/31 04:42:22;;;;;;;;;3.75;2.25;;;;;17.13;60.17;100410.88;5014614;28;45587;-81
2021/07/31 04:44:47;;;;;;;;;3.00;2.50;;;;;16.92;60.66;100393.69;4996989;28;45639;-79
2021/07/31 04:47:13;;;;;;;;;3.00;2.00;;;;;17.17;60.23;100429.91;4996846;28;45549;-81
2021/07/31 04:53:00;;;;;;;;;4.00;3.00;;;;;17.17;60.75;100440.50;5017988;28;45660;-80
2021/07/31 04:55:25;;;;;;;;;6.50;4.75;;;;;17.17;60.71;100445.78;5018336;28;45648;-75
2021/07/31 04:57:51;;;;;;;;;2.25;2.25;;;;;17.16;61.08;100449.44;5016778;28;45788;-76
2021/07/31 05:00:16;;;;;;;;;4.50;4.00;;;;;17.16;60.88;100450.28;5018398;28;45660;-80
2021/07/31 05:02:41;;;;;;;;;3.00;2.25;;;;;17.16;61.28;100442.34;5019807;28;45648;-76
2021/07/31 05:05:11;;;;;;;;;4.00;3.75;;;;;17.12;60.64;100442.78;5019941;28;45597;-81
2021/07/31 05:07:36;;;;;;;;;4.75;3.50;;;;;17.18;61.12;100445.63;5019841;28;45751;-79
2021/07/31 05:10:01;;;;;;;;;3.75;3.00;;;;;17.19;60.70;100455.25;5018968;28;46389;-79
2021/07/31 05:12:27;;;;;;;;;3.00;3.00;;;;;17.18;61.54;100450.94;4999362;28;46847;-80
2021/07/31 05:14:52;;;;;;;;;3.50;3.00;;;;;17.13;61.00;100442.63;5017410;28;45706;-78
2021/07/31 05:17:20;;;;;;;;;4.50;4.00;;;;;17.19;61.01;100457.91;4999565;28;45985;-80
2021/07/31 05:23:13;;;;;;;;;7.25;4.75;;;;;17.16;61.30;100444.16;5019922;28;46060;-80
2021/07/31 05:25:40;;;;;;;;;6.00;4.00;;;;;17.09;61.84;100438.63;5003842;28;45740;-79
2021/07/31 05:28:08;;;;;;;;;3.50;3.00;;;;;17.09;62.02;100440.44;5005800;28;45822;-81
2021/07/31 05:30:33;;;;;;;;;4.00;4.00;;;;;16.82;61.60;100399.06;5022754;28;45807;-80
2021/07/31 05:32:59;;;;;;;;;5.00;5.00;;;;;17.20;61.61;100456.91;5022716;28;45531;-77
2021/07/31 05:35:24;;;;;;;;;5.00;3.75;;;;;17.20;61.71;100462.22;5025438;28;45536;-79
2021/07/31 05:37:50;;;;;;;;;3.75;3.00;;;;;17.17;62.16;100456.38;5024283;28;45728;-76
2021/07/31 05:40:15;;;;;;;;;5.25;4.50;;;;;17.23;61.73;100462.88;5017801;28;46257;-79
2021/07/31 05:42:41;;;;;;;;;3.50;2.75;;;;;17.24;61.41;100460.06;5015961;28;46093;-77
2021/07/31 05:45:07;;;;;;;;;7.50;5.00;;;;;17.20;62.20;100448.13;4998484;28;45658;-75
2021/07/31 05:47:33;;;;;;;;;5.00;4.50;;;;;17.25;62.12;100466.22;5016044;28;45519;-77
2021/07/31 05:53:20;;;;;;;;;4.25;4.00;;;;;17.16;62.21;100446.81;5016028;28;45708;-78
2021/07/31 05:55:46;;;;;;;;;3.00;2.00;;;;;17.22;62.05;100450.66;5015837;28;45716;-77
2021/07/31 05:58:11;;;;;;;;;5.25;4.25;;;;;17.24;62.29;100470.66;5015553;28;45863;-75
2021/07/31 06:00:37;;;;;;;;;5.00;4.75;;;;;17.26;62.41;100467.88;4997143;28;46892;-77
2021/07/31 06:03:02;;;;;;;;;5.00;4.00;;;;;17.28;62.58;100471.19;4997890;28;47038;-76
2021/07/31 06:08:49;;;;;;;;;4.25;3.75;;;;;17.30;63.04;100470.06;5016108;28;45683;-77
2021/07/31 06:11:14;;;;;;;;;4.25;4.00;;;;;17.28;62.72;100466.72;5015491;28;46539;-76
2021/07/31 06:13:39;;;;;;;;;5.50;4.25;;;;;17.30;62.42;100467.41;5015507;28;46084;-75
2021/07/31 06:16:09;;;;;;;;;5.00;4.25;;;;;17.34;62.68;100482.00;5015965;28;45542;-76
2021/07/31 06:18:37;;;;;;;;;4.00;3.50;;;;;17.36;62.98;100479.19;5016480;28;45949;-77
2021/07/31 06:21:03;;;;;;;;;6.00;5.00;;;;;17.38;63.09;100479.88;5016173;28;46475;-76
2021/07/31 06:23:28;;;;;;;;;4.50;4.25;;;;;17.40;62.73;100469.94;5016222;28;45842;-75
2021/07/31 06:26:00;;;;;;;;;4.00;3.75;;;;;17.40;62.62;100481.38;5015912;28;45572;-75
2021/07/31 06:28:25;;;;;;;;;4.00;4.00;;;;;17.42;63.00;100481.22;5015964;28;45671;-80
2021/07/31 06:30:51;;;;;;;;;6.75;6.00;;;;;17.46;62.87;100483.41;5015620;28;46473;-79
2021/07/31 06:33:16;;;;;;;;;5.75;5.25;;;;;17.47;62.69;100471.81;5015048;28;46169;-79
2021/07/31 06:39:29;;;;;;;;;6.25;5.25;;;;;17.56;62.60;100492.06;5011542;28;45810;-83
2021/07/31 06:41:55;;;;;;;;;4.00;3.50;;;;;17.59;62.80;100491.81;5022259;28;46437;-90
2021/07/31 06:44:20;;;;;;;;;2.00;2.00;;;;;17.58;62.88;100481.31;5017407;28;46529;-79
2021/07/31 06:46:46;;;;;;;;;5.25;5.00;;;;;17.67;62.50;100492.81;4998007;28;45654;-79
2021/07/31 06:49:11;;;;;;;;;6.75;6.75;;;;;17.70;62.58;100479.25;5016377;28;45681;-80
2021/07/31 06:51:39;;;;;;;;;5.25;5.00;;;;;17.79;61.98;100483.59;5016008;28;46417;-80
2021/07/31 06:54:05;;;;;;;;;7.00;5.75;;;;;17.82;62.41;100493.88;5015864;28;46193;-79
2021/07/31 06:56:34;;;;;;;;;4.00;4.00;;;;;17.80;62.41;100475.50;5015340;28;45798;-79
2021/07/31 06:58:59;;;;;;;;;2.00;1.00;;;;;17.88;62.36;100496.72;5015758;28;45575;-78
2021/07/31 07:01:25;;;;;;;;;5.00;5.00;;;;;17.88;62.69;100496.72;5015817;28;45650;-77
2021/07/31 07:03:52;;;;;;;;;5.00;5.00;;;;;17.89;62.37;100497.56;5014220;28;45590;-77
2021/07/31 07:09:39;;;;;;;;;5.00;5.00;;;;;17.93;62.14;100501.56;5016463;28;45707;-78
2021/07/31 07:12:05;;;;;;;;;5.50;4.50;;;;;17.98;62.19;100497.44;5016561;28;46680;-79
2021/07/31 07:14:30;;;;;;;;;6.75;5.75;;;;;17.99;62.11;100514.19;5016342;28;46768;-77
2021/07/31 07:16:55;;;;;;;;;5.00;5.00;;;;;17.99;61.50;100493.81;5016231;28;45686;-77
2021/07/31 07:19:20;;;;;;;;;4.75;4.00;;;;;18.08;61.68;100509.75;5015315;28;45584;-78
2021/07/31 07:21:46;;;;;;;;;5.50;5.00;;;;;18.12;61.79;100505.78;5015871;28;45544;-79
2021/07/31 07:24:11;;;;;;;;;6.75;5.50;;;;;18.17;61.63;100506.13;5015989;28;46051;-78
2021/07/31 07:26:37;;;;;;;;;5.50;5.00;;;;;18.22;61.28;100504.66;5016217;28;45584;-80
2021/07/31 07:29:03;;;;;;;;;4.00;4.00;;;;;18.26;61.63;100515.78;5015955;28;45866;-79
2021/07/31 07:31:28;;;;;;;;;6.00;6.00;;;;;18.31;60.82;100511.66;5015871;28;46570;-81
2021/07/31 07:33:56;;;;;;;;;7.00;6.00;;;;;18.34;60.82;100507.84;5020048;28;45540;-81
2021/07/31 07:39:43;;;;;;;;;5.50;5.25;;;;;18.41;60.71;100515.00;5010465;28;45708;-81
2021/07/31 07:42:08;;;;;;;;;4.75;4.75;;;;;18.45;60.75;100516.34;5020924;28;46361;-79
2021/07/31 07:44:34;;;;;;;;;7.00;5.00;;;;;18.50;61.00;100509.72;5022459;28;46117;-80
2021/07/31 07:47:00;;;;;;;;;5.00;5.00;;;;;18.53;60.94;100512.88;5021050;28;45552;-80
2021/07/31 07:49:25;;;;;;;;;5.50;4.25;;;;;18.56;60.94;100517.91;5020442;28;45654;-81
2021/07/31 07:51:51;;;;;;;;;5.00;5.00;;;;;18.59;60.42;100512.25;5019304;28;46613;-81
2021/07/31 07:54:16;;;;;;;;;4.50;4.50;;;;;18.60;60.64;100499.81;5019327;28;45920;-80
2021/07/31 07:56:41;;;;;;;;;7.25;6.75;;;;;18.68;60.24;100515.75;5016140;28;45460;-80
2021/07/31 07:59:07;;;;;;;;;6.25;5.00;;;;;18.65;60.60;100508.13;5015471;28;45737;-80
2021/07/31 08:01:32;;;;;;;;;7.00;6.75;;;;;18.73;60.44;100505.50;5015015;28;46352;-81
2021/07/31 08:03:58;;;;;;;;;6.00;5.25;;;;;18.81;60.39;100508.97;5014836;28;45744;-81
2021/07/31 08:09:45;;;;;;;;;6.50;4.50;;;;;18.87;60.21;100512.78;5014482;28;45644;-78
2021/07/31 08:12:10;;;;;;;;;5.00;4.25;;;;;18.89;59.52;100510.81;5014598;28;46827;-81
2021/07/31 08:14:36;;;;;;;;;6.75;6.50;;;;;18.89;59.34;100513.47;5014666;28;46278;-81
2021/07/31 08:17:02;;;;;;;;;5.00;5.00;;;;;18.92;59.67;100514.94;5014888;28;45481;-80
2021/07/31 08:19:28;;;;;;;;;5.25;4.75;;;;;18.93;59.18;100520.09;5014730;28;45792;-79
2021/07/31 08:21:53;;;;;;;;;5.75;5.75;;;;;18.96;59.04;100513.63;5014610;28;46174;-79
2021/07/31 08:24:19;;;;;;;;;5.50;4.50;;;;;18.96;59.22;100501.16;5016598;28;45667;-79
2021/07/31 08:26:45;;;;;;;;;3.00;3.00;;;;;19.02;59.55;100508.47;5021975;28;45575;-77
2021/07/31 08:29:12;;;;;;;;;5.50;5.25;;;;;19.07;59.43;100519.44;5021757;28;45611;-79
2021/07/31 08:31:40;;;;;;;;;6.00;4.50;;;;;19.09;58.89;100524.59;5022065;28;45583;-81
2021/07/31 08:34:06;;;;;;;;;7.00;5.75;;;;;19.13;58.62;100513.47;5021491;28;45552;-80
2021/07/31 08:39:54;;;;;;;;;5.50;5.00;;;;;19.21;58.50;100509.97;5014737;28;45593;-80
2021/07/31 08:42:19;;;;;;;;;4.75;4.75;;;;;19.24;58.83;100507.81;5017078;28;47265;-78
2021/07/31 08:44:45;;;;;;;;;4.25;4.25;;;;;19.28;58.64;100513.59;5016719;28;46122;-78
2021/07/31 08:47:11;;;;;;;;;5.00;5.00;;;;;19.22;58.53;100493.84;5017240;28;46165;-78
2021/07/31 08:49:38;;;;;;;;;3.50;3.25;;;;;19.35;58.46;100514.59;5017551;28;45655;-78
2021/07/31 08:52:06;;;;;;;;;4.25;4.00;;;;;19.33;58.24;100505.97;5018093;28;45598;-84
2021/07/31 08:54:36;;;;;;;;;3.75;3.75;;;;;19.43;57.71;100514.63;5017845;28;45564;-79
2021/07/31 08:57:01;;;;;;;;;3.75;3.75;;;;;19.48;57.88;100508.81;5017849;28;45653;-79
2021/07/31 08:59:28;;;;;;;;;4.25;4.25;;;;;19.52;57.73;100499.50;5018246;28;45888;-78
2021/07/31 09:01:54;;;;;;;;;4.50;4.50;;;;;19.58;57.58;100502.31;5019258;28;46720;-77
2021/07/31 09:04:20;;;;;;;;;4.00;4.00;;;;;19.60;57.65;100502.13;5019382;28;45575;-78
2021/07/31 09:10:26;;;;;;;;;5.00;4.25;;;;;19.75;57.17;100502.28;5019096;28;45614;-80
2021/07/31 09:12:57;;;;;;;;;4.75;4.75;;;;;19.83;57.00;100505.72;5019095;28;45568;-80
2021/07/31 09:15:35;;;;;;;;;4.75;4.25;;;;;19.91;56.69;100513.69;5017508;28;45955;-79
2021/07/31 09:18:29;;;;;;;;;3.00;2.75;;;;;19.98;56.25;100513.81;5016893;28;45817;-76
2021/07/31 09:20:55;;;;;;;;;3.50;3.50;;;;;20.04;56.42;100516.63;5017471;28;45598;-78
2021/07/31 09:23:21;;;;;;;;;4.00;3.50;;;;;19.98;56.00;100490.72;5017260;28;46401;-81
2021/07/31 09:26:00;;;;;;;;;5.75;4.00;;;;;20.11;56.08;100512.28;5017300;28;46292;-79
2021/07/31 09:28:26;;;;;;;;;5.50;5.00;;;;;20.12;55.72;100502.47;5016974;28;45636;-78
2021/07/31 09:30:52;;;;;;;;;4.00;4.00;;;;;20.19;55.39;100494.63;5016818;28;45797;-79
2021/07/31 09:33:17;;;;;;;;;3.00;3.00;;;;;20.30;55.47;100503.03;5016881;28;45692;-77
2021/07/31 09:35:45;;;;;;;;;3.50;3.00;;;;;20.33;55.34;100497.41;5015646;28;47086;-80
2021/07/31 09:38:12;;;;;;;;;3.00;3.00;;;;;20.42;55.29;100509.66;5017167;28;45613;-77
2021/07/31 09:40:37;;;;;;;;;3.50;3.50;;;;;20.46;55.08;100502.97;5017018;28;45837;-78
2021/07/31 09:43:14;;;;;;;;;4.00;4.00;;;;;20.50;54.20;100506.97;5017424;28;45567;-77
2021/07/31 09:45:39;;;;;;;;;3.50;3.00;;;;;20.51;54.74;100497.16;5017050;28;45961;-80
2021/07/31 09:48:08;;;;;;;;;5.25;4.00;;;;;20.55;54.65;100495.78;5017003;28;45634;-79
2021/07/31 09:50:47;;;;;;;;;3.25;3.25;;;;;20.59;54.63;100485.59;5016844;28;45586;-77
2021/07/31 09:53:12;;;;;;;;;3.75;3.75;;;;;20.65;54.39;100492.88;5016832;28;45525;-79
2021/07/31 09:55:44;;;;;;;;;4.50;3.75;;;;;20.64;54.58;100480.56;5016495;28;46044;-80
2021/07/31 09:58:13;;;;;;;;;3.75;3.25;;;;;20.75;54.36;100488.97;5019492;28;45657;-80
2021/07/31 10:00:40;;;;;;;;;4.25;3.00;;;;;20.81;54.21;100485.59;5020722;28;45833;-79
2021/07/31 10:03:06;;;;;;;;;4.00;4.00;;;;;20.83;53.97;100470.28;5020048;28;47362;-78
2021/07/31 10:05:33;;;;;;;;;4.00;3.50;;;;;20.86;53.89;100474.41;5022265;28;45797;-79
2021/07/31 10:07:59;;;;;;;;;2.50;2.50;;;;;20.85;54.02;100476.25;5024007;28;45717;-78
2021/07/31 10:10:25;;;;;;;;;0.75;0.00;;;;;20.90;53.78;100481.88;5020809;28;45483;-78
2021/07/31 10:12:51;;;;;;;;;4.50;4.00;;;;;20.94;53.70;100482.34;4999429;28;46603;-80
2021/07/31 10:15:16;;;;;;;;;4.00;3.25;;;;;20.94;53.19;100477.03;5019088;28;46131;-80
2021/07/31 10:17:42;;;;;;;;;5.00;3.75;;;;;20.96;53.18;100480.31;5019043;28;45520;-80
2021/07/31 10:20:08;;;;;;;;;3.50;3.25;;;;;20.98;53.07;100467.66;5018993;28;45596;-80
2021/07/31 10:22:44;;;;;;;;;3.50;3.50;;;;;21.03;52.97;100467.13;5017167;28;48106;-79
2021/07/31 10:25:14;;;;;;;;;4.00;4.00;;;;;21.06;52.82;100464.09;5015710;28;47010;-76
2021/07/31 10:27:40;;;;;;;;;3.00;3.00;;;;;21.10;53.02;100471.56;5015515;28;45749;-77
2021/07/31 10:30:38;;;;;;;;;4.00;3.25;;;;;21.10;52.89;100449.41;5015270;28;45805;-78
2021/07/31 10:33:06;;;;;;;;;3.75;3.00;;;;;21.15;52.81;100463.88;4999339;28;45602;-80
2021/07/31 10:35:37;;;;;;;;;2.25;1.00;;;;;21.17;52.76;100464.50;5015117;28;46062;-76
2021/07/31 10:38:05;;;;;;;;;3.00;3.00;;;;;21.04;52.51;100437.66;5014478;28;45611;-77
2021/07/31 10:40:36;;;;;;;;;4.25;4.00;;;;;21.20;52.54;100474.81;5015657;28;45692;-78
2021/07/31 10:43:06;;;;;;;;;4.00;3.00;;;;;21.18;52.50;100463.50;5016841;28;46533;-77
2021/07/31 10:45:34;;;;;;;;;4.00;3.75;;;;;21.23;52.31;100465.63;5017263;28;46253;-81
2021/07/31 10:48:04;;;;;;;;;4.00;3.00;;;;;21.25;52.58;100467.13;5016688;28;45503;-78
2021/07/31 10:50:29;;;;;;;;;3.00;3.00;;;;;21.27;52.20;100466.91;5018111;28;45669;-79
2021/07/31 10:52:57;;;;;;;;;4.25;4.25;;;;;21.26;52.08;100452.78;5016952;28;45550;-77
2021/07/31 10:55:24;;;;;;;;;4.00;3.00;;;;;21.29;52.07;100446.25;5015390;28;46104;-78
2021/07/31 10:57:53;;;;;;;;;4.00;3.00;;;;;21.31;51.81;100457.56;5015281;28;45621;-79
2021/07/31 11:00:44;;;;;;;;;3.00;3.00;;;;;21.34;51.99;100467.84;5014883;28;45680;-79
2021/07/31 11:03:18;;;;;;;;;3.00;3.00;;;;;21.36;51.99;100460.50;4934599;28;45783;-81
2021/07/31 11:05:54;;;;;;;;;3.50;2.00;;;;;21.37;51.81;100451.50;4934033;28;46317;-77
2021/07/31 11:08:21;;;;;;;;;3.00;3.00;;;;;21.30;51.38;100445.25;4934103;28;45646;-78
2021/07/31 11:10:47;;;;;;;;;2.00;2.00;;;;;21.38;51.23;100458.47;4934505;28;45810;-79
2021/07/31 11:13:32;;;;;;;;;3.75;2.75;;;;;21.43;51.06;100461.41;4934181;28;46416;-79
2021/07/31 11:16:04;;;;;;;;;3.00;2.00;;;;;21.47;51.00;100459.22;4934063;28;46036;-82
2021/07/31 11:18:35;;;;;;;;;3.00;3.00;;;;;21.51;50.93;100453.34;4935220;28;45778;-78
2021/07/31 11:21:18;;;;;;;;;3.00;3.00;;;;;21.59;50.41;100453.25;4935194;28;45680;-77
2021/07/31 11:23:49;;;;;;;;;3.00;2.25;;;;;21.65;50.40;100447.16;4934031;28;46554;-76
2021/07/31 11:26:40;;;;;;;;;3.00;2.75;;;;;21.69;50.50;100429.81;4933815;28;46454;-76
2021/07/31 11:29:11;;;;;;;;;3.25;2.25;;;;;21.81;50.02;100437.34;4933691;28;45611;-77
2021/07/31 11:31:38;;;;;;;;;3.00;2.75;;;;;21.87;49.88;100433.91;4917859;28;45518;-77
2021/07/31 11:34:06;;;;;;;;;3.75;3.00;;;;;22.02;48.85;100448.94;4934039;28;45643;-77
2021/07/31 11:36:32;;;;;;;;;2.00;2.00;;;;;22.07;48.76;100443.03;4933823;28;45847;-76
2021/07/31 11:38:59;;;;;;;;;2.00;2.00;;;;;22.06;49.36;100441.38;4933738;28;45723;-77
2021/07/31 11:41:25;;;;;;;;;3.00;2.00;;;;;22.06;49.15;100428.84;5014275;28;45715;-76
2021/07/31 11:43:59;;;;;;;;;2.25;1.25;;;;;22.16;48.56;100436.56;5014747;28;45622;-76
2021/07/31 11:46:30;;;;;;;;;3.50;3.00;;;;;22.19;48.48;100430.84;5015015;28;46117;-76
2021/07/31 11:49:00;;;;;;;;;2.00;2.00;;;;;22.26;48.59;100425.56;5016179;28;45551;-78
2021/07/31 11:51:26;;;;;;;;;2.50;2.50;;;;;22.33;48.75;100431.81;5014084;28;45779;-77
2021/07/31 11:53:53;;;;;;;;;4.00;4.00;;;;;22.38;48.24;100427.56;5014020;28;46443;-77
2021/07/31 11:56:23;;;;;;;;;2.00;2.00;;;;;22.42;48.35;100420.81;5013938;28;45920;-77
2021/07/31 11:58:59;;;;;;;;;2.25;1.25;;;;;22.49;48.49;100418.22;5015020;28;45532;-78
2021/07/31 12:01:25;;;;;;;;;2.50;2.50;;;;;22.58;48.40;100425.91;5003511;28;45511;-79
2021/07/31 12:03:55;;;;;;;;;1.00;1.00;;;;;22.66;48.39;100416.13;5021430;28;45532;-82
2021/07/31 12:06:34;;;;;;;;;1.00;1.00;;;;;22.75;46.77;100423.00;5003679;28;46269;-77
2021/07/31 12:09:02;;;;;;;;;2.00;2.00;;;;;22.70;46.88;100407.53;5020092;28;45613;-77
2021/07/31 12:11:34;;;;;;;;;2.00;2.00;;;;;22.78;46.96;100426.09;5023376;28;45936;-78
2021/07/31 12:13:59;;;;;;;;;2.00;2.00;;;;;22.72;46.46;100402.03;5024790;28;45569;-79
2021/07/31 12:16:28;;;;;;;;;2.00;2.00;;;;;22.83;46.63;100409.53;5006889;28;47174;-78
2021/07/31 12:18:54;;;;;;;;;4.50;3.50;;;;;22.85;45.91;100418.97;5025083;28;45600;-78
2021/07/31 12:21:28;;;;;;;;;3.00;3.00;;;;;22.82;46.24;100407.88;5025248;28;45743;-78
2021/07/31 12:23:54;;;;;;;;;2.25;2.25;;;;;22.86;46.20;100419.81;5000138;28;45780;-79
2021/07/31 12:26:30;;;;;;;;;3.00;2.00;;;;;22.85;45.60;100412.81;5015635;28;46069;-78
2021/07/31 12:28:57;;;;;;;;;3.00;2.75;;;;;22.83;45.54;100421.03;5015689;28;45728;-78
2021/07/31 12:31:27;;;;;;;;;2.00;2.00;;;;;22.82;45.93;100427.41;5018117;28;45640;-80
2021/07/31 12:33:54;;;;;;;;;2.00;2.00;;;;;22.69;45.96;100397.03;5017624;28;47486;-79